Sierra Nevada Aquatic Research Lab (SNARL) Reserve, California Weather observations

Data are for 10 minute period ending at time listed.
 Day   Time   Solar   Ave.   Ave.  Ave.  Vector  Max.   Baro.   Total    
  of    of     Rad.   Air    Rel.  Wind   Wind   Wind  Press.  Precip.   
Year   Day            Temp.  Hum.  Speed  Dir.   Gust                    
2017   (PST)  Kw/m2    F      %     mph   deg.    mph    mb.     in.     
-------------------------------------------------------------------------
 263    0:00   0.00   37.5    69    2.1   237     3.8   782.9    0.00 
 263    0:10   0.00   36.2    70    1.7   254     6.5   783.0    0.00 
 263    0:20   0.00   36.7    69    2.6   254     7.3   782.9    0.00 
 263    0:30   0.00   37.8    69    2.8   254     6.1   782.9    0.00 
 263    0:40   0.00   37.9    70    2.5   243     4.9   782.9    0.00 
 263    0:50   0.00   37.6    66    2.9   231     5.3   782.7    0.00 
 263    1:00   0.00   38.0    68    1.1   260     4.0   782.6    0.00 
 263    1:10   0.00   36.8    68    1.4   183     4.1   782.5    0.00 
 263    1:20   0.00   36.9    71    2.8   297     4.7   782.5    0.00 
 263    1:30   0.00   38.7    69    1.4   317     3.8   782.4    0.00 
 263    1:40   0.00   36.8    69    3.4   225     4.7   782.4    0.00 
 263    1:50   0.00   35.8    73    1.8   286     3.9   782.3    0.00 
 263    2:00   0.00   35.0    74    2.5   261     3.8   782.3    0.00 
 263    2:10   0.00   34.2    72    3.3   227     4.9   782.2    0.00 
 263    2:20   0.00   35.8    71    2.8   270     3.9   782.2    0.00 
 263    2:30   0.00   35.4    71    2.2   236     4.9   782.2    0.00 
 263    2:40   0.00   36.1    70    2.8     2     5.2   782.1    0.00 
 263    2:50   0.00   36.6    71    2.4   266     7.4   782.1    0.00 
 263    3:00   0.00   37.4    70    2.9   317     7.7   782.1    0.00 
 263    3:10   0.00   38.3    73    4.3   222    12.1   782.2    0.00 
 263    3:20   0.00   40.7    71    3.8   192    10.6   782.2    0.00 
 263    3:30   0.00   39.8    71    2.1   107     5.9   782.2    0.00 
 263    3:40   0.00   38.6    75    3.8   223     9.6   782.2    0.00 
 263    3:50   0.00   38.7    75    2.0    68     5.6   782.1    0.00 
 263    4:00   0.00   39.0    76    2.9   294     8.9   782.1    0.00 
 263    4:10   0.00   38.0    78    1.7   268     5.5   782.1    0.00 
 263    4:20   0.00   37.0    81    4.5   296    10.8   782.0    0.00 
 263    4:30   0.00   38.5    78    2.2   207     5.9   782.0    0.00 
 263    4:40   0.00   37.3    78    2.7   242     7.7   782.0    0.00 
 263    4:50   0.00   36.0    80    2.8   238     6.5   781.9    0.00 
 263    5:00   0.00   35.0    81    2.6   242     5.5   782.0    0.00 
 263    5:10   0.00   34.7    80    2.5   236     5.7   781.9    0.00 
 263    5:20   0.00   34.9    80    2.6   250     7.3   782.0    0.00 
 263    5:30   0.00   34.2    80    2.9   225     5.3   782.0    0.00 
 263    5:40   0.00   34.2    81    2.5   199     4.3   781.9    0.00 
 263    5:50   0.00   35.2    80    2.0   352     3.7   781.9    0.00 
 263    6:00   0.01   34.4    80    2.5   119     5.2   782.0    0.00 
 263    6:10   0.04   36.4    75    2.1   229     6.2   782.0    0.00 
 263    6:20   0.07   39.7    71    2.3   332     7.2   782.0    0.00 
 263    6:30   0.11   43.8    62    2.3   276     7.7   782.1    0.00 
 263    6:40   0.14   47.0    56    2.9   110     6.1   782.2    0.00 
 263    6:50   0.17   48.3    54    2.8     3     6.2   782.2    0.00 
 263    7:00   0.21   52.6    44    3.7   257     6.6   782.1    0.00 
 263    7:10   0.24   55.6    41    5.0   290    12.1   782.0    0.00 
 263    7:20   0.28   58.3    37    3.6   322     6.9   781.9    0.00 
 263    7:30   0.31   60.4    35    4.1   287    11.0   781.9    0.00 
 263    7:40   0.33   61.1    33    7.2   281    14.0   781.9    0.00 
 263    7:50   0.38   60.9    35    4.5   302     9.9   781.9    0.00 
 263    8:00   0.42   62.3    32    3.2   268     7.7   781.8    0.00 
 263    8:10   0.45   62.9    31    9.8   236    18.6   781.6    0.00 
 263    8:20   0.48   63.0    30    9.5   219    17.5   781.6    0.00 
 263    8:30   0.51   63.5    30   10.6   216    20.5   781.5    0.00 
 263    8:40   0.54   63.8    30   10.2   221    19.8   781.5    0.00 
 263    8:50   0.57   64.1    29   12.2   212    19.7   781.4    0.00 
 263    9:00   0.60   64.7    29   11.7   211    21.3   781.3    0.00 
 263    9:10   0.63   65.0    29   12.2   210    24.7   781.3    0.00 
 263    9:20   0.66   65.2    29   11.3   214    23.2   781.3    0.00 

Return to SNARL Reserve graphs page.


Western Regional Climate Center,wrcc@dri.edu